Mammoth, AZ (85618)

02:00 PM MST on September 04, 2015 (GMT -0700)
KAZMAMMO2 | | Change Station
CLOSE
Current Station
Personligvejrstation
Location: Mammoth, AZ
Højde: 2600 ft
Vejrstationer i nærheden

Elev 2600 ft 32.70 °N, 110.65 °W | Updated 19 seconds ago

Let skyet
Let skyet
87.6 ° F
Føles som 89 ° F
N
0.0
Vind Skiftende Vind Syd
Gusts 0.0 mph

I dag
Høj -- | Lav -- ° F
--% Risiko for nedbør
I går
Høj -- | Lav -- ° F
Precip. -- tommer
5:59 AM 6:43 PM
Aftagende måne, 56% visible
Tryk 29.83 tommer
Sigtbarhed 10.0 mil
Skyer Klart
Varmeindeks 89 ° F
Dugpunkt 64 ° F
Luftfugtighed 45%
Regnmængde 0.00 tommer
Snedybde Ikke tilgængelig.
UV 9 fra 12
Pollen .70 fra 12
Luftkvalitet Ikke tilgængelig.
Flu Activity Ikke tilgængelig.
METAR KDMA 042058Z AUTO 00000KT 10SM CLR 28/15 A2994 RMK AO2 SLP100 T02750153 57012 $
Tryk 29.83 tommer
Sigtbarhed 10.0 mil
Skyer Klart
Varmeindeks 89 ° F
Dugpunkt 64 ° F
Luftfugtighed 45%
Regnmængde 0.00 tommer
Snedybde Ikke tilgængelig.
UV 9 fra 12
Pollen .70 fra 12
Luftkvalitet Ikke tilgængelig.
Flu Activity Ikke tilgængelig.
METAR KDMA 042058Z AUTO 00000KT 10SM CLR 28/15 A2994 RMK AO2 SLP100 T02750153 57012 $

10-Day Weather Forecast

×

Almanac

Astronomi

Sep. 04, 2015 Opgang Nedgang
Faktisktidspunkt
Civilttusmørke
Nautisktusmørke
Astronomisktusmørke
Måne
Synligtlys’ længde
Dagens længde
Tomorrow will be .
, % of the Moon is Illuminated

Ekstremer i dag

State Highs State Lows

Community

WunderPhotos

Upload Photos

1,852,290 Billeder uploaded!

WunderBlogs® & News

Nearby

Luftkvalitet

  Luftkvalitet AQ-indeks Forureningskilder
Not available.

Snedybde

Station Depth Højde

Jordskælvsaktivitet

By Distance Mag. Time & Date
Minimum magnitude displayed is 2.5.

Kystnære vandtemperaturer

Sted Temperatur

Stations

Vejrstationer i nærheden

Stationenssted Temp. Vindeffekt Dugpunkt Luftfugtighed Vind Precip. Elev Opdateret Type